createdAt,value
2023-04-16T00:02:14.823Z,5.70
2023-04-16T00:04:41.546Z,7.60
2023-04-16T00:07:08.220Z,3.40
2023-04-16T00:09:34.790Z,5.57
2023-04-16T00:12:01.381Z,3.65
2023-04-16T00:14:27.947Z,4.63
2023-04-16T00:16:54.469Z,3.25
2023-04-16T00:19:21.031Z,4.85
2023-04-16T00:21:47.605Z,4.70
2023-04-16T00:24:14.123Z,4.97
2023-04-16T00:26:41.038Z,3.30
2023-04-16T00:29:07.683Z,2.97
2023-04-16T00:31:34.620Z,5.22
2023-04-16T00:34:03.181Z,8.95
2023-04-16T00:36:29.803Z,2.58
2023-04-16T00:38:57.013Z,5.55
2023-04-16T00:41:23.868Z,3.28
2023-04-16T00:43:51.536Z,4.72
2023-04-16T00:46:21.087Z,8.82
2023-04-16T00:48:47.584Z,7.30
2023-04-16T00:51:14.483Z,5.45
2023-04-16T00:53:41.135Z,5.78
2023-04-16T00:56:07.759Z,4.32
2023-04-16T00:58:35.609Z,5.75
2023-04-16T01:01:02.487Z,4.90
2023-04-16T01:03:38.332Z,3.78
2023-04-16T01:06:06.398Z,3.35
2023-04-16T01:08:32.940Z,5.28
2023-04-16T01:11:01.105Z,5.85
2023-04-16T01:13:27.649Z,8.02
2023-04-16T01:15:54.240Z,5.90
2023-04-16T01:18:22.167Z,7.65
2023-04-16T01:20:50.764Z,6.68
2023-04-16T01:23:18.706Z,5.43
2023-04-16T01:25:46.274Z,6.50
2023-04-16T01:28:13.207Z,6.30
2023-04-16T01:30:39.771Z,8.85
2023-04-16T01:33:18.993Z,6.75
2023-04-16T01:35:46.719Z,9.88
2023-04-16T01:38:15.417Z,8.38
2023-04-16T01:40:41.953Z,5.47
2023-04-16T01:43:08.444Z,5.38
2023-04-16T01:45:35.546Z,6.38
2023-04-16T01:48:03.022Z,8.55
2023-04-16T01:50:30.824Z,7.85
2023-04-16T01:52:57.253Z,5.88
2023-04-16T01:55:23.730Z,5.43
2023-04-16T01:57:50.757Z,8.00
2023-04-16T02:00:17.273Z,7.18
2023-04-16T02:02:46.974Z,11.80
2023-04-16T02:05:19.632Z,7.78
2023-04-16T02:07:46.526Z,9.48
2023-04-16T02:10:12.974Z,8.85
2023-04-16T02:12:40.111Z,7.05
2023-04-16T02:15:07.370Z,7.68
2023-04-16T02:17:34.634Z,5.32
2023-04-16T02:20:09.477Z,7.72
2023-04-16T02:22:39.555Z,7.40
2023-04-16T02:25:06.448Z,8.05
2023-04-16T02:27:33.188Z,11.32
2023-04-16T02:30:15.727Z,13.02
2023-04-16T02:32:42.265Z,11.88
2023-04-16T02:35:08.958Z,8.70
2023-04-16T02:37:35.541Z,8.73
2023-04-16T02:40:02.161Z,7.88
2023-04-16T02:42:29.462Z,13.93
2023-04-16T02:44:56.262Z,10.02
2023-04-16T02:47:22.749Z,8.80
2023-04-16T02:49:49.505Z,10.20
2023-04-16T02:52:15.905Z,8.88
2023-04-16T02:54:42.343Z,13.85
2023-04-16T02:57:08.810Z,11.90
2023-04-16T02:59:35.519Z,11.30
2023-04-16T03:02:02.092Z,10.10
2023-04-16T03:04:28.794Z,12.40
2023-04-16T03:06:55.312Z,7.97
2023-04-16T03:09:21.765Z,9.85
2023-04-16T03:11:48.280Z,14.13
2023-04-16T03:14:16.669Z,11.93
2023-04-16T03:16:43.118Z,11.57
2023-04-16T03:19:09.869Z,11.13
2023-04-16T03:21:36.463Z,13.15
2023-04-16T03:24:02.976Z,10.77
2023-04-16T03:26:29.413Z,13.30
2023-04-16T03:28:55.926Z,16.13
2023-04-16T03:31:24.585Z,12.40
2023-04-16T03:33:51.716Z,16.20
2023-04-16T03:36:18.186Z,11.13
2023-04-16T03:38:44.821Z,13.07
2023-04-16T03:41:11.356Z,10.32
2023-04-16T03:43:37.806Z,7.80
2023-04-16T03:46:04.921Z,12.50
2023-04-16T03:48:31.725Z,10.00
2023-04-16T03:50:58.703Z,10.90
2023-04-16T03:53:25.338Z,11.25
2023-04-16T03:55:52.532Z,7.70
2023-04-16T03:58:20.197Z,10.90
2023-04-16T04:00:47.583Z,11.52
2023-04-16T04:03:18.910Z,11.68
2023-04-16T04:05:48.236Z,13.02
2023-04-16T04:08:19.960Z,11.38
2023-04-16T04:10:46.499Z,10.00
2023-04-16T04:13:14.220Z,11.00
2023-04-16T04:15:41.023Z,17.08
2023-04-16T04:18:07.578Z,10.35
2023-04-16T04:20:34.072Z,13.80
2023-04-16T04:23:01.848Z,12.20
2023-04-16T04:25:28.403Z,10.80
2023-04-16T04:27:54.912Z,16.35
2023-04-16T04:30:22.082Z,12.40
2023-04-16T04:32:48.638Z,12.70
2023-04-16T04:35:16.243Z,15.05
2023-04-16T04:37:42.784Z,8.57
2023-04-16T04:40:14.462Z,11.50
2023-04-16T04:42:40.972Z,15.55
2023-04-16T04:45:08.298Z,9.80
2023-04-16T04:47:35.473Z,11.35
2023-04-16T04:50:02.058Z,13.20
2023-04-16T04:52:29.595Z,14.55
2023-04-16T04:54:56.340Z,16.20
2023-04-16T04:57:22.824Z,12.60
2023-04-16T04:59:52.852Z,13.50
2023-04-16T05:02:19.688Z,10.00
2023-04-16T05:04:46.297Z,9.80
2023-04-16T05:07:12.748Z,10.55
2023-04-16T05:09:39.252Z,13.40
2023-04-16T05:12:05.896Z,12.35
2023-04-16T05:14:32.366Z,15.35
2023-04-16T05:16:58.901Z,11.73
2023-04-16T05:19:25.457Z,11.35
2023-04-16T05:21:51.888Z,16.63
2023-04-16T05:24:18.323Z,10.15
2023-04-16T05:26:44.872Z,11.80
2023-04-16T05:29:11.687Z,12.88
2023-04-16T05:31:38.813Z,11.98
2023-04-16T05:34:05.321Z,16.10
2023-04-16T05:36:31.848Z,11.93
2023-04-16T05:38:58.634Z,11.15
2023-04-16T05:41:25.513Z,17.05
2023-04-16T05:43:52.045Z,14.15
2023-04-16T05:46:18.543Z,12.18
2023-04-16T05:48:45.964Z,11.93
2023-04-16T05:51:12.874Z,12.02
2023-04-16T05:53:39.543Z,21.48
2023-04-16T05:56:06.419Z,16.70
2023-04-16T05:58:32.925Z,12.50
2023-04-16T06:01:01.109Z,12.18
2023-04-16T06:03:28.063Z,10.73
2023-04-16T06:05:54.655Z,12.35
2023-04-16T06:08:21.258Z,13.95
2023-04-16T06:10:48.250Z,13.18
2023-04-16T06:13:14.843Z,13.20
2023-04-16T06:15:41.349Z,11.88
2023-04-16T06:18:07.825Z,13.43
2023-04-16T06:20:34.403Z,9.45
2023-04-16T06:23:01.091Z,15.57
2023-04-16T06:25:27.491Z,9.73
2023-04-16T06:27:54.016Z,17.65
2023-04-16T06:30:20.968Z,12.35
2023-04-16T06:32:48.069Z,15.20
2023-04-16T06:35:16.864Z,15.15
2023-04-16T06:37:43.354Z,14.57
2023-04-16T06:40:10.557Z,20.10
2023-04-16T06:42:36.982Z,14.25
2023-04-16T06:45:03.727Z,12.73
2023-04-16T06:47:30.250Z,11.70
2023-04-16T06:49:56.891Z,11.77
2023-04-16T06:52:23.345Z,14.77
2023-04-16T06:54:49.801Z,13.20
2023-04-16T06:57:16.417Z,19.63
2023-04-16T06:59:42.968Z,15.82
2023-04-16T07:02:10.557Z,15.32
2023-04-16T07:04:37.592Z,13.82
2023-04-16T07:07:04.122Z,13.18
2023-04-16T07:09:32.651Z,14.93
2023-04-16T07:11:59.576Z,13.25
2023-04-16T07:14:26.244Z,14.25
2023-04-16T07:16:52.941Z,13.82
2023-04-16T07:19:19.417Z,16.27
2023-04-16T07:21:46.334Z,14.82
2023-04-16T07:24:14.070Z,19.23
2023-04-16T07:26:41.086Z,11.65
2023-04-16T07:29:07.801Z,12.82
2023-04-16T07:31:34.489Z,13.77
2023-04-16T07:34:01.107Z,14.10
2023-04-16T07:36:28.265Z,13.40
2023-04-16T07:38:54.757Z,12.43
2023-04-16T07:41:24.227Z,10.07
2023-04-16T07:43:54.885Z,12.63
2023-04-16T07:46:21.989Z,9.70
2023-04-16T07:48:48.493Z,14.65
2023-04-16T07:51:15.380Z,10.85
2023-04-16T07:53:43.396Z,15.10
2023-04-16T07:56:09.912Z,12.55
2023-04-16T07:58:36.497Z,12.40
2023-04-16T08:01:03.043Z,11.95
2023-04-16T08:03:30.089Z,11.80
2023-04-16T08:05:56.652Z,11.27
2023-04-16T08:08:23.086Z,12.23
2023-04-16T08:10:49.616Z,12.93
2023-04-16T08:13:16.081Z,10.27
2023-04-16T08:15:42.612Z,9.32
2023-04-16T08:18:12.994Z,10.32
2023-04-16T08:20:39.574Z,12.43
2023-04-16T08:23:06.154Z,9.40
2023-04-16T08:25:32.750Z,7.53
2023-04-16T08:27:59.491Z,13.40
2023-04-16T08:30:26.000Z,7.60
2023-04-16T08:32:52.921Z,9.07
2023-04-16T08:35:21.339Z,9.55
2023-04-16T08:37:47.746Z,8.63
2023-04-16T08:40:14.315Z,7.68
2023-04-16T08:42:45.849Z,9.65
2023-04-16T08:45:17.540Z,6.97
2023-04-16T08:47:54.693Z,6.13
2023-04-16T08:50:26.075Z,7.05
2023-04-16T08:52:56.572Z,6.18
2023-04-16T08:55:31.060Z,5.45
2023-04-16T08:58:02.705Z,7.70
2023-04-16T09:00:31.563Z,9.13
2023-04-16T09:02:58.826Z,7.60
2023-04-16T09:05:27.058Z,5.40
2023-04-16T09:07:54.591Z,7.32
2023-04-16T09:10:21.808Z,6.07
2023-04-16T09:12:48.216Z,5.13
2023-04-16T09:15:14.722Z,6.75
2023-04-16T09:17:41.415Z,5.82
2023-04-16T09:20:09.116Z,5.38
2023-04-16T09:22:39.987Z,4.90
2023-04-16T09:25:07.357Z,4.75
2023-04-16T09:27:34.135Z,4.28
2023-04-16T09:30:00.812Z,5.97
2023-04-16T09:32:28.732Z,5.85
2023-04-16T09:34:57.692Z,5.32
2023-04-16T09:37:26.050Z,6.07
2023-04-16T09:40:03.977Z,5.95
2023-04-16T09:42:32.866Z,6.75
2023-04-16T09:45:01.405Z,6.68
2023-04-16T09:47:45.800Z,6.30
2023-04-16T09:50:18.614Z,5.75
2023-04-16T09:52:51.916Z,4.97
2023-04-16T09:55:23.426Z,7.18
2023-04-16T09:57:58.889Z,7.22
2023-04-16T10:00:25.578Z,5.95
2023-04-16T10:03:03.985Z,6.20
2023-04-16T10:05:30.635Z,7.70
2023-04-16T10:08:01.173Z,7.45
2023-04-16T10:10:27.931Z,7.43
2023-04-16T10:12:57.917Z,6.57
2023-04-16T10:15:25.681Z,5.53
2023-04-16T10:17:55.846Z,5.85
2023-04-16T10:22:49.603Z,7.10
2023-04-16T10:25:16.890Z,10.13
2023-04-16T10:27:44.410Z,9.75
2023-04-16T10:30:11.660Z,9.60
2023-04-16T10:32:38.471Z,11.00
2023-04-16T10:35:05.657Z,9.05
2023-04-16T10:37:32.703Z,10.35
2023-04-16T10:39:59.955Z,12.23
2023-04-16T10:42:27.505Z,12.13
2023-04-16T10:44:54.008Z,9.23
2023-04-16T10:47:24.848Z,10.45
2023-04-16T10:49:51.863Z,14.15
2023-04-16T10:52:18.525Z,10.80
2023-04-16T10:54:49.125Z,9.68
2023-04-16T10:57:19.568Z,11.93
2023-04-16T10:59:48.601Z,14.63
2023-04-16T11:02:21.142Z,12.90
2023-04-16T11:04:49.448Z,12.50
2023-04-16T11:07:17.852Z,11.32
2023-04-16T11:09:46.452Z,14.90
2023-04-16T11:12:15.285Z,9.35
2023-04-16T11:14:42.812Z,13.57
2023-04-16T11:17:10.260Z,11.57
2023-04-16T11:19:38.121Z,11.38
2023-04-16T11:22:05.356Z,13.38
2023-04-16T11:24:32.589Z,7.85
2023-04-16T11:26:59.308Z,8.93
2023-04-16T11:29:25.869Z,13.05
2023-04-16T11:31:53.881Z,9.52
2023-04-16T11:34:21.264Z,10.30
2023-04-16T11:36:51.472Z,9.52
2023-04-16T11:41:46.127Z,9.50
2023-04-16T11:44:23.717Z,12.85
2023-04-16T11:46:51.357Z,10.45
2023-04-16T11:49:18.416Z,12.38
2023-04-16T11:51:46.789Z,8.45
2023-04-16T11:54:24.536Z,11.23
2023-04-16T11:56:54.823Z,10.77
2023-04-16T11:59:24.166Z,9.40
2023-04-16T12:01:52.826Z,10.55
2023-04-16T12:04:21.019Z,11.85
2023-04-16T12:07:12.774Z,11.23
2023-04-16T12:09:43.819Z,11.65
2023-04-16T12:12:31.130Z,8.70
2023-04-16T12:15:00.212Z,11.90
2023-04-16T12:17:26.895Z,11.25
2023-04-16T12:19:57.957Z,13.27
2023-04-16T12:22:36.776Z,11.82
2023-04-16T12:25:06.078Z,7.40
2023-04-16T12:27:41.902Z,12.15
2023-04-16T12:30:08.921Z,10.93
2023-04-16T12:32:35.508Z,8.90
2023-04-16T12:35:02.406Z,10.20
2023-04-16T12:37:30.671Z,12.82
2023-04-16T12:39:57.334Z,9.80
2023-04-16T12:42:23.784Z,9.32
2023-04-16T12:44:51.742Z,9.20
2023-04-16T12:47:18.375Z,8.85
2023-04-16T12:49:45.733Z,10.13
2023-04-16T12:52:12.562Z,8.63
2023-04-16T12:54:39.157Z,8.82
2023-04-16T12:57:08.554Z,12.07
2023-04-16T12:59:35.027Z,9.65
2023-04-16T13:02:02.518Z,11.27
2023-04-16T13:04:29.206Z,9.68
2023-04-16T13:06:55.928Z,9.98
2023-04-16T13:09:22.397Z,11.95
2023-04-16T13:11:48.891Z,12.77
2023-04-16T13:14:15.816Z,12.38
2023-04-16T13:16:43.287Z,13.85
2023-04-16T13:19:10.049Z,14.60
2023-04-16T13:21:36.989Z,17.00
2023-04-16T13:24:04.472Z,17.77
2023-04-16T13:26:31.005Z,15.82
2023-04-16T13:28:57.517Z,19.38
2023-04-16T13:31:24.499Z,17.77
2023-04-16T13:33:50.984Z,15.48
2023-04-16T13:36:17.486Z,11.43
2023-04-16T13:38:44.146Z,16.70
2023-04-16T13:41:11.275Z,13.65
2023-04-16T13:43:37.736Z,16.80
2023-04-16T13:46:04.436Z,15.82
2023-04-16T13:48:31.092Z,12.38
2023-04-16T13:50:57.534Z,14.05
2023-04-16T13:53:24.085Z,11.40
2023-04-16T13:55:52.183Z,14.00
2023-04-16T13:58:18.676Z,10.50
2023-04-16T14:00:45.392Z,9.52
2023-04-16T14:03:14.991Z,10.45
2023-04-16T14:05:43.369Z,12.50
2023-04-16T14:08:10.140Z,13.82
2023-04-16T14:10:38.723Z,12.68
2023-04-16T14:13:05.381Z,13.45
2023-04-16T14:15:31.887Z,14.60
2023-04-16T14:17:58.591Z,11.25
2023-04-16T14:20:25.347Z,11.80
2023-04-16T14:22:51.899Z,11.60
2023-04-16T14:25:18.473Z,8.55
2023-04-16T14:27:45.016Z,12.23
2023-04-16T14:30:11.619Z,9.27
2023-04-16T14:32:38.167Z,12.15
2023-04-16T14:35:05.442Z,9.48
2023-04-16T14:37:31.955Z,13.23
2023-04-16T14:39:58.626Z,12.93
2023-04-16T14:42:25.082Z,11.25
2023-04-16T14:44:52.181Z,10.45
2023-04-16T14:47:19.183Z,10.13
2023-04-16T14:49:45.617Z,12.52
2023-04-16T14:52:13.529Z,13.93
2023-04-16T14:54:40.039Z,11.55
2023-04-16T14:57:06.831Z,13.55
2023-04-16T14:59:33.494Z,10.93
2023-04-16T15:02:00.131Z,13.25
2023-04-16T15:04:26.993Z,14.35
2023-04-16T15:06:55.668Z,9.40
2023-04-16T15:09:27.043Z,9.20
2023-04-16T15:11:53.972Z,11.35
2023-04-16T15:14:21.649Z,12.05
2023-04-16T15:16:48.600Z,10.18
2023-04-16T15:19:15.121Z,7.60
2023-04-16T15:21:41.613Z,12.38
2023-04-16T15:24:08.502Z,14.15
2023-04-16T15:26:35.608Z,9.73
2023-04-16T15:29:02.185Z,11.20
2023-04-16T15:31:28.766Z,8.45
2023-04-16T15:33:56.120Z,10.27
2023-04-16T15:36:24.699Z,10.77
2023-04-16T15:38:51.218Z,11.57
2023-04-16T15:41:17.809Z,11.15
2023-04-16T15:43:45.001Z,8.38
2023-04-16T15:46:15.076Z,12.57
2023-04-16T15:51:13.566Z,14.60
2023-04-16T15:53:45.558Z,9.52
2023-04-16T16:00:43.144Z,10.68
2023-04-16T16:03:14.791Z,12.18
2023-04-16T16:05:52.167Z,11.02
2023-04-16T16:08:50.836Z,14.10
2023-04-16T16:15:55.190Z,15.38
2023-04-16T16:18:24.994Z,15.27
2023-04-16T16:21:55.932Z,11.20
2023-04-16T16:24:51.848Z,12.45
2023-04-16T16:27:29.110Z,9.73
2023-04-16T16:29:55.809Z,13.15
2023-04-16T16:32:22.515Z,10.48
2023-04-16T16:35:01.509Z,14.35
2023-04-16T16:37:55.760Z,16.73
2023-04-16T16:40:34.965Z,15.45
2023-04-16T16:43:27.689Z,13.88
2023-04-16T16:45:57.041Z,15.52
2023-04-16T16:48:23.751Z,10.60
2023-04-16T16:50:53.332Z,14.88
2023-04-16T16:53:19.960Z,13.38
2023-04-16T16:55:47.471Z,14.93
2023-04-16T16:58:14.284Z,13.43
2023-04-16T17:00:52.505Z,12.50
2023-04-16T17:03:19.393Z,17.73
2023-04-16T17:09:12.999Z,15.15
2023-04-16T17:11:39.945Z,14.48
2023-04-16T17:15:09.242Z,12.95
2023-04-16T17:17:35.941Z,13.73
2023-04-16T17:20:34.497Z,16.40
2023-04-16T17:23:10.474Z,13.63
2023-04-16T17:25:39.067Z,19.15
2023-04-16T17:28:07.838Z,13.68
2023-04-16T17:30:59.597Z,16.52
2023-04-16T17:33:26.139Z,15.38
2023-04-16T17:35:52.672Z,15.57
2023-04-16T17:38:19.132Z,13.48
2023-04-16T17:40:45.638Z,13.77
2023-04-16T17:43:12.195Z,15.73
2023-04-16T17:45:41.711Z,14.35
2023-04-16T17:48:08.352Z,16.50
2023-04-16T17:50:35.712Z,13.52
2023-04-16T17:53:03.905Z,12.27
2023-04-16T17:55:31.254Z,14.73
2023-04-16T17:58:05.312Z,14.68
2023-04-16T18:00:31.796Z,12.10
2023-04-16T18:02:59.794Z,13.82
2023-04-16T18:05:27.364Z,9.93
2023-04-16T18:07:55.380Z,12.85
2023-04-16T18:10:21.930Z,12.57
2023-04-16T18:12:48.560Z,14.27
2023-04-16T18:16:07.680Z,12.48
2023-04-16T18:18:34.449Z,12.00
2023-04-16T18:21:03.908Z,14.27
2023-04-16T18:23:32.243Z,15.10
2023-04-16T18:25:58.668Z,13.68
2023-04-16T18:28:27.191Z,12.18
2023-04-16T18:30:53.767Z,14.73
2023-04-16T18:33:48.848Z,17.02
2023-04-16T18:38:59.956Z,17.92
2023-04-16T18:41:27.938Z,20.92
2023-04-16T18:43:54.524Z,14.00
2023-04-16T18:46:21.122Z,15.77
2023-04-16T18:48:48.310Z,15.57
2023-04-16T18:51:16.303Z,15.65
2023-04-16T18:53:44.193Z,17.13
2023-04-16T18:56:11.626Z,13.60
2023-04-16T18:58:38.178Z,17.85
2023-04-16T19:01:05.240Z,16.70
2023-04-16T19:03:33.738Z,17.75
2023-04-16T19:06:00.376Z,15.40
2023-04-16T19:08:27.109Z,16.58
2023-04-16T19:10:53.555Z,17.92
2023-04-16T19:13:20.105Z,18.63
2023-04-16T19:15:46.635Z,16.08
2023-04-16T19:18:14.285Z,21.35
2023-04-16T19:20:40.905Z,17.33
2023-04-16T19:23:09.163Z,17.27
2023-04-16T19:25:38.762Z,17.52
2023-04-16T19:28:05.474Z,12.38
2023-04-16T19:30:32.014Z,21.05
2023-04-16T19:32:58.682Z,19.25
2023-04-16T19:35:25.411Z,16.00
2023-04-16T19:37:51.913Z,17.10
2023-04-16T19:40:18.650Z,16.23
2023-04-16T19:42:45.297Z,17.17
2023-04-16T19:45:11.770Z,18.67
2023-04-16T19:47:38.249Z,15.95
2023-04-16T19:50:05.063Z,16.20
2023-04-16T19:52:37.266Z,18.27
2023-04-16T19:55:04.176Z,17.70
2023-04-16T19:57:30.649Z,16.25
2023-04-16T19:59:57.474Z,17.60
2023-04-16T20:02:24.030Z,18.63
2023-04-16T20:04:52.856Z,16.52
2023-04-16T20:07:20.395Z,21.88
2023-04-16T20:09:46.818Z,17.40
2023-04-16T20:12:14.600Z,17.52
2023-04-16T20:14:41.913Z,17.15
2023-04-16T20:17:10.156Z,19.77
2023-04-16T20:19:40.719Z,19.13
2023-04-16T20:24:34.313Z,17.40
2023-04-16T20:27:01.710Z,20.17
2023-04-16T20:29:28.290Z,17.42
2023-04-16T20:31:54.802Z,20.05
2023-04-16T20:34:21.209Z,21.58
2023-04-16T20:36:47.748Z,18.92
2023-04-16T20:39:14.649Z,20.70
2023-04-16T20:41:44.294Z,18.13
2023-04-16T20:44:17.937Z,19.80
2023-04-16T20:46:49.859Z,20.80
2023-04-16T20:49:18.444Z,19.67
2023-04-16T20:51:44.909Z,19.23
2023-04-16T20:54:13.518Z,19.70
2023-04-16T20:56:40.073Z,25.48
2023-04-16T20:59:06.533Z,21.38
2023-04-16T21:01:33.100Z,20.75
2023-04-16T21:03:59.744Z,21.85
2023-04-16T21:06:26.287Z,23.45
2023-04-16T21:08:52.758Z,22.95
2023-04-16T21:11:21.333Z,25.15
2023-04-16T21:13:47.798Z,22.92
2023-04-16T21:16:14.248Z,23.17
2023-04-16T21:18:40.934Z,21.42
2023-04-16T21:21:07.457Z,22.10
2023-04-16T21:23:33.884Z,23.55
2023-04-16T21:26:00.331Z,20.20
2023-04-16T21:28:26.846Z,18.60
2023-04-16T21:30:53.321Z,20.17
2023-04-16T21:33:19.740Z,22.73
2023-04-16T21:35:52.033Z,21.40
2023-04-16T21:38:19.800Z,17.30
2023-04-16T21:40:50.475Z,18.33
2023-04-16T21:43:17.826Z,17.25
2023-04-16T21:45:44.275Z,17.63
2023-04-16T21:48:10.789Z,18.55
2023-04-16T21:50:37.354Z,18.10
2023-04-16T21:53:06.282Z,18.02
2023-04-16T21:55:34.595Z,18.20
2023-04-16T21:58:01.539Z,18.63
2023-04-16T22:00:28.211Z,17.13
2023-04-16T22:02:55.947Z,18.10
2023-04-16T22:05:25.799Z,16.10
2023-04-16T22:07:52.840Z,19.42
2023-04-16T22:10:19.434Z,19.33
2023-04-16T22:12:46.446Z,20.50
2023-04-16T22:15:14.856Z,18.95
2023-04-16T22:17:41.426Z,21.98
2023-04-16T22:20:11.511Z,18.45
2023-04-16T22:22:38.633Z,21.77
2023-04-16T22:25:05.768Z,19.30
2023-04-16T22:27:32.913Z,17.60
2023-04-16T22:30:00.003Z,21.85
2023-04-16T22:32:26.564Z,27.13
2023-04-16T22:34:53.410Z,23.10
2023-04-16T22:37:19.902Z,24.85
2023-04-16T22:39:46.372Z,20.90
2023-04-16T22:42:12.891Z,22.30
2023-04-16T22:44:39.542Z,24.58
2023-04-16T22:47:06.022Z,26.08
2023-04-16T22:49:33.237Z,22.10
2023-04-16T22:52:02.993Z,24.13
2023-04-16T22:54:30.710Z,23.45
2023-04-16T22:56:57.491Z,24.00
2023-04-16T22:59:24.868Z,23.60
2023-04-16T23:01:51.829Z,24.98
2023-04-16T23:04:18.671Z,21.25
2023-04-16T23:06:46.241Z,30.20
2023-04-16T23:09:14.270Z,23.88
2023-04-16T23:11:40.941Z,27.48
2023-04-16T23:14:08.303Z,27.95
2023-04-16T23:16:34.856Z,29.83
2023-04-16T23:19:01.275Z,21.42
2023-04-16T23:21:27.877Z,22.92
2023-04-16T23:23:54.423Z,23.42
2023-04-16T23:26:20.831Z,22.90
2023-04-16T23:28:47.295Z,26.27
2023-04-16T23:31:13.896Z,20.25
2023-04-16T23:33:40.646Z,25.88
2023-04-16T23:36:07.675Z,28.13
2023-04-16T23:38:34.188Z,27.77
2023-04-16T23:41:03.453Z,24.85
2023-04-16T23:43:29.957Z,29.80
2023-04-16T23:45:56.423Z,27.13
2023-04-16T23:48:22.876Z,21.10
2023-04-16T23:50:49.410Z,23.55
2023-04-16T23:53:15.852Z,23.50
2023-04-16T23:55:42.308Z,25.80
2023-04-16T23:58:08.714Z,23.40
